createdAt,value
2022-09-12T00:00:17.751Z,9.73
2022-09-12T00:02:46.329Z,10.32
2022-09-12T00:05:16.418Z,7.88
2022-09-12T00:07:45.709Z,9.00
2022-09-12T00:10:15.918Z,11.98
2022-09-12T00:12:46.059Z,8.32
2022-09-12T00:15:15.598Z,9.27
2022-09-12T00:17:44.969Z,8.18
2022-09-12T00:20:13.909Z,8.57
2022-09-12T00:22:45.589Z,7.82
2022-09-12T00:25:14.069Z,10.35
2022-09-12T00:27:42.598Z,6.88
2022-09-12T00:30:13.410Z,9.18
2022-09-12T00:32:43.179Z,9.85
2022-09-12T00:35:11.750Z,10.73
2022-09-12T00:37:40.258Z,8.48
2022-09-12T00:40:11.198Z,10.27
2022-09-12T00:42:39.728Z,8.27
2022-09-12T00:45:20.750Z,7.57
2022-09-12T00:47:49.749Z,9.02
2022-09-12T00:50:19.288Z,9.10
2022-09-12T00:52:52.493Z,7.90
2022-09-12T00:55:26.029Z,8.75
2022-09-12T00:57:58.330Z,6.88
2022-09-12T01:00:29.168Z,5.93
2022-09-12T01:03:02.008Z,8.18
2022-09-12T01:05:33.209Z,6.68
2022-09-12T01:08:03.965Z,7.95
2022-09-12T01:10:37.178Z,9.23
2022-09-12T01:13:07.578Z,8.63
2022-09-12T01:15:38.468Z,7.25
2022-09-12T01:18:18.159Z,7.20
2022-09-12T01:21:01.618Z,8.13
2022-09-12T01:24:02.369Z,8.27
2022-09-12T01:26:58.458Z,7.95
2022-09-12T01:29:52.139Z,8.13
2022-09-12T01:32:30.248Z,7.43
2022-09-12T01:35:07.390Z,8.75
2022-09-12T01:37:43.338Z,6.72
2022-09-12T01:40:17.503Z,8.13
2022-09-12T01:42:56.419Z,6.78
2022-09-12T01:45:31.888Z,6.88
2022-09-12T01:48:10.159Z,7.57
2022-09-12T01:50:52.059Z,6.25
2022-09-12T01:53:25.279Z,8.20
2022-09-12T01:55:59.038Z,5.97
2022-09-12T01:58:31.790Z,6.03
2022-09-12T02:01:08.070Z,5.40
2022-09-12T02:03:45.219Z,4.88
2022-09-12T02:06:20.450Z,6.50
2022-09-12T02:08:53.558Z,5.82
2022-09-12T02:11:22.918Z,7.47
2022-09-12T02:13:57.509Z,6.50
2022-09-12T02:16:33.557Z,5.47
2022-09-12T02:19:11.068Z,6.55
2022-09-12T02:21:45.099Z,5.47
2022-09-12T02:24:16.168Z,6.18
2022-09-12T02:26:51.248Z,6.40
2022-09-12T02:29:19.889Z,6.68
2022-09-12T02:31:51.031Z,4.47
2022-09-12T02:34:34.599Z,5.35
2022-09-12T02:37:10.458Z,6.82
2022-09-12T02:39:43.248Z,6.70
2022-09-12T02:42:14.409Z,4.85
2022-09-12T02:44:43.388Z,4.90
2022-09-12T02:47:17.590Z,5.85
2022-09-12T02:49:48.619Z,6.28
2022-09-12T02:52:17.150Z,4.57
2022-09-12T02:54:46.569Z,5.20
2022-09-12T02:57:22.648Z,4.88
2022-09-12T02:59:53.563Z,5.22
2022-09-12T03:02:39.291Z,5.57
2022-09-12T03:05:20.313Z,6.47
2022-09-12T03:08:11.718Z,5.00
2022-09-12T03:10:53.549Z,6.80
2022-09-12T03:13:27.898Z,4.90
2022-09-12T03:16:08.970Z,4.78
2022-09-12T03:18:50.519Z,4.82
2022-09-12T03:21:27.638Z,4.95
2022-09-12T03:24:10.679Z,4.53
2022-09-12T03:26:45.595Z,3.75
2022-09-12T03:29:16.439Z,6.32
2022-09-12T03:31:52.738Z,4.38
2022-09-12T03:34:21.729Z,5.40
2022-09-12T03:36:52.479Z,5.07
2022-09-12T03:39:21.240Z,4.38
2022-09-12T03:41:49.659Z,4.82
2022-09-12T03:44:18.232Z,4.47
2022-09-12T03:46:47.520Z,4.65
2022-09-12T03:49:16.390Z,4.78
2022-09-12T03:51:45.269Z,4.65
2022-09-12T03:54:15.219Z,4.80
2022-09-12T03:56:43.779Z,5.40
2022-09-12T03:59:12.139Z,4.68
2022-09-12T04:01:41.868Z,4.03
2022-09-12T04:04:11.330Z,4.47
2022-09-12T04:06:39.729Z,5.40
2022-09-12T04:09:08.149Z,4.18
2022-09-12T04:11:37.980Z,4.70
2022-09-12T04:14:06.449Z,4.47
2022-09-12T04:16:34.920Z,4.95
2022-09-12T04:19:03.439Z,5.43
2022-09-12T04:21:32.298Z,5.25
2022-09-12T04:24:00.699Z,5.70
2022-09-12T04:26:30.068Z,5.82
2022-09-12T04:29:00.139Z,3.75
2022-09-12T04:31:28.848Z,3.80
2022-09-12T04:33:58.599Z,4.43
2022-09-12T04:36:27.870Z,4.30
2022-09-12T04:38:56.824Z,4.03
2022-09-12T04:41:27.199Z,5.35
2022-09-12T04:43:58.999Z,4.43
2022-09-12T04:46:29.950Z,4.45
2022-09-12T04:48:58.449Z,3.95
2022-09-12T04:51:29.079Z,4.55
2022-09-12T04:54:00.060Z,3.78
2022-09-12T04:56:30.088Z,4.00
2022-09-12T04:58:59.758Z,5.00
2022-09-12T05:01:31.144Z,4.03
2022-09-12T05:04:00.242Z,4.88
2022-09-12T05:06:30.329Z,3.58
2022-09-12T05:08:59.129Z,5.82
2022-09-12T05:11:46.689Z,2.70
2022-09-12T05:14:18.330Z,5.07
2022-09-12T05:16:49.560Z,4.90
2022-09-12T05:19:18.671Z,3.50
2022-09-12T05:21:47.132Z,4.63
2022-09-12T05:24:15.559Z,3.50
2022-09-12T05:26:44.129Z,4.90
2022-09-12T05:29:13.371Z,4.38
2022-09-12T05:31:41.821Z,3.97
2022-09-12T05:34:12.917Z,3.95
2022-09-12T05:36:41.419Z,3.25
2022-09-12T05:39:09.868Z,4.65
2022-09-12T05:41:38.470Z,4.15
2022-09-12T05:44:09.069Z,3.60
2022-09-12T05:46:39.308Z,3.80
2022-09-12T05:49:11.593Z,3.53
2022-09-12T05:51:41.643Z,2.95
2022-09-12T05:54:13.540Z,3.92
2022-09-12T05:56:43.589Z,4.60
2022-09-12T05:59:14.681Z,3.17
2022-09-12T06:01:43.639Z,4.30
2022-09-12T06:04:13.986Z,4.35
2022-09-12T06:06:45.477Z,4.53
2022-09-12T06:09:16.339Z,4.90
2022-09-12T06:11:45.440Z,2.80
2022-09-12T06:14:16.283Z,3.63
2022-09-12T06:16:45.084Z,3.63
2022-09-12T06:19:20.729Z,3.35
2022-09-12T06:21:49.920Z,4.47
2022-09-12T06:24:18.979Z,4.60
2022-09-12T06:26:47.654Z,4.95
2022-09-12T06:29:16.850Z,4.35
2022-09-12T06:31:46.039Z,4.10
2022-09-12T06:34:17.398Z,5.32
2022-09-12T06:36:47.620Z,4.65
2022-09-12T06:39:18.378Z,4.05
2022-09-12T06:41:47.378Z,3.72
2022-09-12T06:44:17.568Z,3.35
2022-09-12T06:46:46.104Z,5.15
2022-09-12T06:49:17.783Z,4.57
2022-09-12T06:51:46.540Z,4.90
2022-09-12T06:54:17.174Z,4.40
2022-09-12T06:56:46.093Z,4.05
2022-09-12T06:59:14.569Z,4.88
2022-09-12T07:01:43.365Z,5.45
2022-09-12T07:04:12.078Z,5.38
2022-09-12T07:06:44.818Z,7.22
2022-09-12T07:09:16.566Z,5.05
2022-09-12T07:11:45.968Z,6.78
2022-09-12T07:14:15.709Z,8.70
2022-09-12T07:16:44.362Z,9.60
2022-09-12T07:19:13.170Z,6.95
2022-09-12T07:21:43.289Z,7.00
2022-09-12T07:24:12.614Z,7.72
2022-09-12T07:26:42.350Z,8.35
2022-09-12T07:29:35.758Z,8.73
2022-09-12T07:32:06.104Z,8.32
2022-09-12T07:34:35.131Z,7.72
2022-09-12T07:37:06.119Z,8.57
2022-09-12T07:39:34.650Z,6.43
2022-09-12T07:42:03.050Z,7.53
2022-09-12T07:44:31.608Z,8.07
2022-09-12T07:47:00.198Z,7.60
2022-09-12T07:49:29.040Z,8.98
2022-09-12T07:51:58.019Z,7.82
2022-09-12T07:54:27.949Z,7.32
2022-09-12T07:56:56.499Z,9.70
2022-09-12T07:59:41.867Z,8.10
2022-09-12T08:02:17.560Z,11.05
2022-09-12T08:04:46.649Z,5.75
2022-09-12T08:07:15.131Z,6.88
2022-09-12T08:09:44.988Z,8.55
2022-09-12T08:12:13.428Z,6.95
2022-09-12T08:14:41.909Z,7.50
2022-09-12T08:17:10.459Z,7.00
2022-09-12T08:19:39.620Z,6.25
2022-09-12T08:22:08.459Z,7.13
2022-09-12T08:24:36.878Z,7.97
2022-09-12T08:27:06.989Z,10.93
2022-09-12T08:29:35.509Z,11.23
2022-09-12T08:32:04.908Z,8.95
2022-09-12T08:34:33.451Z,11.23
2022-09-12T08:37:01.908Z,11.00
2022-09-12T08:39:30.449Z,10.40
2022-09-12T08:42:03.249Z,8.60
2022-09-12T08:45:00.719Z,9.90
2022-09-12T08:47:32.921Z,8.80
2022-09-12T08:50:08.078Z,11.30
2022-09-12T08:52:44.428Z,8.88
2022-09-12T08:55:29.160Z,9.07
2022-09-12T08:57:57.569Z,7.53
2022-09-12T09:00:31.919Z,9.07
2022-09-12T09:03:15.968Z,6.70
2022-09-12T09:05:51.770Z,6.90
2022-09-12T09:08:37.130Z,9.90
2022-09-12T09:11:17.019Z,8.48
2022-09-12T09:14:16.599Z,7.78
2022-09-12T09:16:50.099Z,8.07
2022-09-12T09:19:23.129Z,13.63
2022-09-12T09:21:58.898Z,11.38
2022-09-12T09:24:35.119Z,9.55
2022-09-12T09:27:23.576Z,9.93
2022-09-12T09:29:57.628Z,11.18
2022-09-12T09:32:32.839Z,11.38
2022-09-12T09:35:02.188Z,7.07
2022-09-12T09:37:39.138Z,8.43
2022-09-12T09:40:16.706Z,12.45
2022-09-12T09:42:54.191Z,9.38
2022-09-12T09:45:25.588Z,8.55
2022-09-12T09:47:59.099Z,13.05
2022-09-12T09:50:27.533Z,12.18
2022-09-12T09:52:59.148Z,14.75
2022-09-12T09:55:32.678Z,6.15
2022-09-12T09:58:01.138Z,10.85
2022-09-12T10:00:32.222Z,10.90
2022-09-12T10:03:26.270Z,10.32
2022-09-12T10:05:57.261Z,7.85
2022-09-12T10:08:28.299Z,9.02
2022-09-12T10:11:03.236Z,8.57
2022-09-12T10:13:39.429Z,7.45
2022-09-12T10:16:20.199Z,6.78
2022-09-12T10:18:52.786Z,12.18
2022-09-12T10:21:33.928Z,10.57
2022-09-12T10:24:17.249Z,14.25
2022-09-12T10:26:56.804Z,10.55
2022-09-12T10:29:29.088Z,11.23
2022-09-12T10:32:00.378Z,8.50
2022-09-12T10:34:33.748Z,5.45
2022-09-12T10:37:05.891Z,8.07
2022-09-12T10:39:36.368Z,7.78
2022-09-12T10:42:05.654Z,7.47
2022-09-12T10:44:36.501Z,7.30
2022-09-12T10:47:24.496Z,5.95
2022-09-12T10:49:54.839Z,4.50
2022-09-12T10:52:26.039Z,4.03
2022-09-12T10:54:55.309Z,4.75
2022-09-12T10:57:52.589Z,5.00
2022-09-12T11:00:28.030Z,7.65
2022-09-12T11:03:08.007Z,8.52
2022-09-12T11:05:55.071Z,5.35
2022-09-12T11:08:59.633Z,4.30
2022-09-12T11:11:50.448Z,8.05
2022-09-12T11:14:34.760Z,7.07
2022-09-12T11:17:13.773Z,6.68
2022-09-12T11:20:15.949Z,7.63
2022-09-12T11:23:11.259Z,5.70
2022-09-12T11:25:47.234Z,7.43
2022-09-12T11:28:32.454Z,8.75
2022-09-12T11:31:19.106Z,6.27
2022-09-12T11:33:49.362Z,9.10
2022-09-12T11:36:28.876Z,7.30
2022-09-12T11:39:04.954Z,4.22
2022-09-12T11:41:37.025Z,7.18
2022-09-12T11:44:15.573Z,4.82
2022-09-12T11:46:48.767Z,2.60
2022-09-12T11:49:28.516Z,4.85
2022-09-12T11:52:03.274Z,5.60
2022-09-12T11:54:38.079Z,3.03
2022-09-12T11:57:16.979Z,4.70
2022-09-12T11:59:51.724Z,4.10
2022-09-12T12:02:27.994Z,3.17
2022-09-12T12:05:17.060Z,3.70
2022-09-12T12:07:54.153Z,4.35
2022-09-12T12:10:33.534Z,3.83
2022-09-12T12:13:04.597Z,4.28
2022-09-12T12:15:33.484Z,4.78
2022-09-12T12:18:04.428Z,4.30
2022-09-12T12:20:33.239Z,5.10
2022-09-12T12:23:02.415Z,3.95
2022-09-12T12:25:52.144Z,5.35
2022-09-12T12:28:59.544Z,4.95
2022-09-12T12:31:28.272Z,3.75
2022-09-12T12:34:03.765Z,3.72
2022-09-12T12:36:43.506Z,4.50
2022-09-12T12:39:46.349Z,3.80
2022-09-12T12:43:04.911Z,4.10
2022-09-12T12:46:01.989Z,6.13
2022-09-12T12:48:47.664Z,5.07
2022-09-12T12:51:51.065Z,5.57
2022-09-12T12:54:53.934Z,4.47
2022-09-12T12:57:50.254Z,4.60
2022-09-12T13:00:35.374Z,4.57
2022-09-12T13:03:12.314Z,4.80
2022-09-12T13:05:43.605Z,3.75
2022-09-12T13:08:13.575Z,3.50
2022-09-12T13:10:51.964Z,3.90
2022-09-12T13:13:26.984Z,4.05
2022-09-12T13:15:55.826Z,5.15
2022-09-12T13:18:29.324Z,5.80
2022-09-12T13:21:09.534Z,5.15
2022-09-12T13:23:38.334Z,4.80
2022-09-12T13:26:13.554Z,3.83
2022-09-12T13:28:42.217Z,4.72
2022-09-12T13:31:19.562Z,4.30
2022-09-12T13:33:52.535Z,3.33
2022-09-12T13:36:53.004Z,3.67
2022-09-12T13:39:24.534Z,3.45
2022-09-12T13:42:09.554Z,3.60
2022-09-12T13:44:45.034Z,5.03
2022-09-12T13:47:17.844Z,4.07
2022-09-12T13:49:48.130Z,4.85
2022-09-12T13:52:20.424Z,4.75
2022-09-12T13:54:51.474Z,5.00
2022-09-12T13:57:34.904Z,4.43
2022-09-12T14:00:09.224Z,4.75
2022-09-12T14:02:38.513Z,4.30
2022-09-12T14:05:21.523Z,4.32
2022-09-12T14:07:56.554Z,4.47
2022-09-12T14:10:32.059Z,4.07
2022-09-12T14:13:02.794Z,4.03
2022-09-12T14:15:33.883Z,4.00
2022-09-12T14:18:04.139Z,4.80
2022-09-12T14:20:38.795Z,4.90
2022-09-12T14:23:20.364Z,4.18
2022-09-12T14:25:49.704Z,4.80
2022-09-12T14:28:23.604Z,4.70
2022-09-12T14:31:03.935Z,4.03
2022-09-12T14:33:36.204Z,2.78
2022-09-12T14:36:19.905Z,4.45
2022-09-12T14:38:52.354Z,4.90
2022-09-12T14:41:27.234Z,4.22
2022-09-12T14:43:59.713Z,4.07
2022-09-12T14:46:33.151Z,4.80
2022-09-12T14:49:16.064Z,4.82
2022-09-12T14:51:54.484Z,4.32
2022-09-12T14:54:39.744Z,4.53
2022-09-12T14:57:19.724Z,5.33
2022-09-12T14:59:48.307Z,5.22
2022-09-12T15:02:26.278Z,4.60
2022-09-12T15:04:56.623Z,4.93
2022-09-12T15:07:34.598Z,4.50
2022-09-12T15:10:05.496Z,5.03
2022-09-12T15:12:34.024Z,6.72
2022-09-12T15:15:14.430Z,6.05
2022-09-12T15:17:43.273Z,5.97
2022-09-12T15:20:12.144Z,5.80
2022-09-12T15:23:25.463Z,5.88
2022-09-12T15:26:00.865Z,5.45
2022-09-12T15:28:29.964Z,4.97
2022-09-12T15:30:59.568Z,4.55
2022-09-12T15:33:28.474Z,4.30
2022-09-12T15:35:57.224Z,4.47
2022-09-12T15:38:27.294Z,4.30
2022-09-12T15:40:56.984Z,5.53
2022-09-12T15:43:26.474Z,5.03
2022-09-12T15:45:55.177Z,5.30
2022-09-12T15:48:23.953Z,5.65
2022-09-12T15:50:53.163Z,4.85
2022-09-12T15:53:22.376Z,5.63
2022-09-12T15:55:52.628Z,5.97
2022-09-12T15:58:21.714Z,5.63
2022-09-12T16:00:51.199Z,5.90
2022-09-12T16:03:23.786Z,6.20
2022-09-12T16:05:55.334Z,6.85
2022-09-12T16:08:24.186Z,7.30
2022-09-12T16:10:58.804Z,6.60
2022-09-12T16:13:27.534Z,7.90
2022-09-12T16:15:59.232Z,7.57
2022-09-12T16:18:28.225Z,5.93
2022-09-12T16:20:57.753Z,6.28
2022-09-12T16:23:26.635Z,5.82
2022-09-12T16:26:01.887Z,4.53
2022-09-12T16:28:30.964Z,6.57
2022-09-12T16:31:01.679Z,4.78
2022-09-12T16:33:31.354Z,4.80
2022-09-12T16:36:04.264Z,6.03
2022-09-12T16:38:34.025Z,6.30
2022-09-12T16:41:05.125Z,6.35
2022-09-12T16:43:34.833Z,7.00
2022-09-12T16:46:04.848Z,7.97
2022-09-12T16:48:33.873Z,7.28
2022-09-12T16:51:03.954Z,6.15
2022-09-12T16:53:33.289Z,5.28
2022-09-12T16:56:01.879Z,7.50
2022-09-12T16:58:38.484Z,6.32
2022-09-12T17:01:12.688Z,6.45
2022-09-12T17:03:42.203Z,7.00
2022-09-12T17:06:13.165Z,5.68
2022-09-12T17:08:44.674Z,6.45
2022-09-12T17:11:15.744Z,6.05
2022-09-12T17:14:06.213Z,7.78
2022-09-12T17:16:36.229Z,5.40
2022-09-12T17:19:05.439Z,7.28
2022-09-12T17:22:01.174Z,7.30
2022-09-12T17:24:40.899Z,8.13
2022-09-12T17:27:20.724Z,7.28
2022-09-12T17:29:55.257Z,5.75
2022-09-12T17:32:27.174Z,6.68
2022-09-12T17:34:56.114Z,8.18
2022-09-12T17:37:25.104Z,7.93
2022-09-12T17:39:53.985Z,7.10
2022-09-12T17:42:24.544Z,6.20
2022-09-12T17:44:55.603Z,8.27
2022-09-12T17:47:24.153Z,6.35
2022-09-12T17:49:58.621Z,7.45
2022-09-12T17:52:33.925Z,6.78
2022-09-12T17:55:04.464Z,5.68
2022-09-12T17:57:33.379Z,6.68
2022-09-12T18:00:03.674Z,6.68
2022-09-12T18:02:33.136Z,6.60
2022-09-12T18:05:05.463Z,6.57
2022-09-12T18:07:35.903Z,7.07
2022-09-12T18:10:05.514Z,7.38
2022-09-12T18:12:37.023Z,5.90
2022-09-12T18:15:08.103Z,6.97
2022-09-12T18:17:36.675Z,7.35
2022-09-12T18:20:06.604Z,6.78
2022-09-12T18:22:38.069Z,6.68
2022-09-12T18:25:07.305Z,5.82
2022-09-12T18:27:35.859Z,5.75
2022-09-12T18:30:20.454Z,6.70
2022-09-12T18:32:52.864Z,5.72
2022-09-12T18:35:21.484Z,6.00
2022-09-12T18:37:50.074Z,7.28
2022-09-12T18:40:18.781Z,5.85
2022-09-12T18:42:47.374Z,6.57
2022-09-12T18:45:16.085Z,6.75
2022-09-12T18:47:44.584Z,8.65
2022-09-12T18:50:14.649Z,5.80
2022-09-12T18:52:43.215Z,6.18
2022-09-12T18:55:12.149Z,6.38
2022-09-12T18:57:42.325Z,6.07
2022-09-12T19:00:12.727Z,5.95
2022-09-12T19:02:41.485Z,6.40
2022-09-12T19:05:13.064Z,6.47
2022-09-12T19:07:43.003Z,6.72
2022-09-12T19:10:12.428Z,5.63
2022-09-12T19:12:41.024Z,7.18
2022-09-12T19:15:11.014Z,6.65
2022-09-12T19:17:39.508Z,5.95
2022-09-12T19:20:08.524Z,5.90
2022-09-12T19:22:37.031Z,5.95
2022-09-12T19:25:08.004Z,6.28
2022-09-12T19:27:36.863Z,5.55
2022-09-12T19:30:05.818Z,6.60
2022-09-12T19:32:34.284Z,6.40
2022-09-12T19:35:02.704Z,5.68
2022-09-12T19:37:31.414Z,6.20
2022-09-12T19:40:02.288Z,6.45
2022-09-12T19:42:32.834Z,7.63
2022-09-12T19:45:01.354Z,7.00
2022-09-12T19:47:29.764Z,6.55
2022-09-12T19:49:58.084Z,6.10
2022-09-12T19:52:26.624Z,6.97
2022-09-12T19:54:55.064Z,5.80
2022-09-12T19:57:23.523Z,5.82
2022-09-12T19:59:53.434Z,6.60
2022-09-12T20:02:22.120Z,5.47
2022-09-12T20:04:51.024Z,5.22
2022-09-12T20:07:19.537Z,6.72
2022-09-12T20:09:48.974Z,6.75
2022-09-12T20:12:17.505Z,6.93
2022-09-12T20:14:46.084Z,5.93
2022-09-12T20:17:16.124Z,7.65
2022-09-12T20:20:00.875Z,5.20
2022-09-12T20:22:38.053Z,5.47
2022-09-12T20:25:22.934Z,6.05
2022-09-12T20:27:58.138Z,6.43
2022-09-12T20:30:38.764Z,7.35
2022-09-12T20:33:16.734Z,5.38
2022-09-12T20:35:45.254Z,6.65
2022-09-12T20:38:13.685Z,5.72
2022-09-12T20:40:49.604Z,6.10
2022-09-12T20:43:18.018Z,6.00
2022-09-12T20:45:46.735Z,5.25
2022-09-12T20:48:16.664Z,6.88
2022-09-12T20:50:45.263Z,6.40
2022-09-12T20:53:13.774Z,6.95
2022-09-12T20:55:50.134Z,5.65
2022-09-12T20:58:19.485Z,6.97
2022-09-12T21:00:48.345Z,5.88
2022-09-12T21:03:19.654Z,6.75
2022-09-12T21:05:48.364Z,6.72
2022-09-12T21:08:16.875Z,5.40
2022-09-12T21:10:48.324Z,6.20
2022-09-12T21:13:17.644Z,5.40
2022-09-12T21:15:47.424Z,5.93
2022-09-12T21:18:19.564Z,5.40
2022-09-12T21:20:53.964Z,5.30
2022-09-12T21:23:23.314Z,6.43
2022-09-12T21:25:52.572Z,4.63
2022-09-12T21:28:25.803Z,5.72
2022-09-12T21:30:55.017Z,7.78
2022-09-12T21:33:25.414Z,5.72
2022-09-12T21:35:57.170Z,6.35
2022-09-12T21:38:27.195Z,5.75
2022-09-12T21:41:24.279Z,6.97
2022-09-12T21:44:01.424Z,6.45
2022-09-12T21:47:01.037Z,8.02
2022-09-12T21:50:02.174Z,6.20
2022-09-12T21:52:39.404Z,7.60
2022-09-12T21:55:12.934Z,6.25
2022-09-12T21:57:49.514Z,5.30
2022-09-12T22:00:19.144Z,5.68
2022-09-12T22:02:49.830Z,5.05
2022-09-12T22:05:22.744Z,7.07
2022-09-12T22:07:54.531Z,5.38
2022-09-12T22:10:26.975Z,7.18
2022-09-12T22:12:56.389Z,6.90
2022-09-12T22:15:41.646Z,6.55
2022-09-12T22:18:12.501Z,7.17
2022-09-12T22:20:44.335Z,4.93
2022-09-12T22:23:30.930Z,6.97
2022-09-12T22:26:00.621Z,5.38
2022-09-12T22:28:32.323Z,5.05
2022-09-12T22:31:02.302Z,5.55
2022-09-12T22:33:37.674Z,4.80
2022-09-12T22:36:09.033Z,5.90
2022-09-12T22:38:41.905Z,5.22
2022-09-12T22:41:17.284Z,5.63
2022-09-12T22:46:18.274Z,5.18
2022-09-12T22:48:48.427Z,7.85
2022-09-12T22:51:19.069Z,7.18
2022-09-12T22:53:52.255Z,5.90
2022-09-12T22:56:22.024Z,7.35
2022-09-12T22:58:51.390Z,6.65
2022-09-12T23:01:20.644Z,8.02
2022-09-12T23:03:50.105Z,6.15
2022-09-12T23:06:21.789Z,6.18
2022-09-12T23:08:50.459Z,6.72
2022-09-12T23:11:21.737Z,7.78
2022-09-12T23:13:56.319Z,7.38
2022-09-12T23:16:28.580Z,9.00
2022-09-12T23:18:57.253Z,9.27
2022-09-12T23:21:27.285Z,9.45
2022-09-12T23:23:59.314Z,15.25
2022-09-12T23:26:28.734Z,18.30
2022-09-12T23:28:59.318Z,26.63
2022-09-12T23:31:30.445Z,25.00
2022-09-12T23:34:04.777Z,25.25
2022-09-12T23:36:35.373Z,23.70
2022-09-12T23:39:04.744Z,23.70
2022-09-12T23:41:33.906Z,21.73
2022-09-12T23:44:03.614Z,22.55
2022-09-12T23:46:32.244Z,20.63
2022-09-12T23:49:00.738Z,21.20
2022-09-12T23:51:29.145Z,20.92
2022-09-12T23:53:59.204Z,19.05
2022-09-12T23:56:27.684Z,20.40
2022-09-12T23:58:56.084Z,24.40
